createdAt,value
2017-10-18T00:00:17.447Z,52.03
2017-10-18T00:01:19.942Z,54.63
2017-10-18T00:02:22.402Z,50.22
2017-10-18T00:03:24.862Z,51.90
2017-10-18T00:04:27.330Z,53.03
2017-10-18T00:05:30.589Z,51.35
2017-10-18T00:06:33.086Z,49.80
2017-10-18T00:07:36.362Z,54.30
2017-10-18T00:08:38.825Z,52.13
2017-10-18T00:09:41.294Z,48.25
2017-10-18T00:10:43.778Z,54.38
2017-10-18T00:11:46.273Z,59.75
2017-10-18T00:12:48.783Z,52.25
2017-10-18T00:13:51.248Z,56.67
2017-10-18T00:14:53.713Z,47.97
2017-10-18T00:16:00.760Z,59.95
2017-10-18T00:17:03.292Z,52.00
2017-10-18T00:18:05.768Z,55.72
2017-10-18T00:19:08.259Z,51.05
2017-10-18T00:20:10.754Z,53.50
2017-10-18T00:21:13.243Z,48.78
2017-10-18T00:22:15.758Z,49.10
2017-10-18T00:23:18.322Z,57.10
2017-10-18T00:24:21.574Z,50.67
2017-10-18T00:25:24.059Z,54.00
2017-10-18T00:26:26.530Z,54.97
2017-10-18T00:27:29.035Z,53.53
2017-10-18T00:28:32.270Z,56.65
2017-10-18T00:29:35.583Z,53.47
2017-10-18T00:30:38.049Z,56.60
2017-10-18T00:31:41.279Z,52.53
2017-10-18T00:32:44.533Z,51.42
2017-10-18T00:33:48.006Z,64.32
2017-10-18T00:34:50.467Z,55.03
2017-10-18T00:35:52.954Z,57.62
2017-10-18T00:36:55.423Z,53.97
2017-10-18T00:37:57.887Z,52.20
2017-10-18T00:39:00.367Z,60.92
2017-10-18T00:40:02.810Z,58.10
2017-10-18T00:41:06.078Z,55.85
2017-10-18T00:42:09.436Z,54.22
2017-10-18T00:43:11.943Z,51.40
2017-10-18T00:44:15.613Z,52.20
2017-10-18T00:45:18.101Z,54.03
2017-10-18T00:46:20.655Z,52.75
2017-10-18T00:47:23.184Z,50.35
2017-10-18T00:48:25.677Z,59.70
2017-10-18T00:49:28.165Z,50.00
2017-10-18T00:50:30.634Z,57.08
2017-10-18T00:51:33.869Z,58.10
2017-10-18T00:52:36.423Z,55.05
2017-10-18T00:53:38.873Z,58.38
2017-10-18T00:54:41.350Z,50.45
2017-10-18T00:55:44.594Z,50.83
2017-10-18T00:56:47.837Z,50.17
2017-10-18T00:57:50.335Z,62.10
2017-10-18T00:58:52.798Z,57.67
2017-10-18T00:59:56.041Z,53.05
2017-10-18T01:00:59.318Z,51.65
2017-10-18T01:02:01.816Z,55.60
2017-10-18T01:03:05.066Z,50.10
2017-10-18T01:04:07.562Z,62.40
2017-10-18T01:05:10.046Z,68.57
2017-10-18T01:06:12.510Z,50.80
2017-10-18T01:08:23.959Z,57.03
2017-10-18T01:09:26.424Z,65.15
2017-10-18T01:10:28.887Z,55.60
2017-10-18T01:11:31.357Z,56.17
2017-10-18T01:12:33.829Z,59.45
2017-10-18T01:13:36.346Z,57.80
2017-10-18T01:14:39.599Z,57.28
2017-10-18T01:15:42.079Z,62.58
2017-10-18T01:16:44.559Z,64.70
2017-10-18T01:17:47.026Z,62.13
2017-10-18T01:18:49.602Z,60.63
2017-10-18T01:19:52.097Z,59.03
2017-10-18T01:20:54.569Z,61.63
2017-10-18T01:21:57.040Z,58.75
2017-10-18T01:22:59.502Z,58.67
2017-10-18T01:24:02.033Z,58.40
2017-10-18T01:25:04.560Z,66.70
2017-10-18T01:26:07.026Z,71.28
2017-10-18T01:27:09.523Z,67.65
2017-10-18T01:28:12.037Z,61.88
2017-10-18T01:29:14.522Z,65.72
2017-10-18T01:30:16.978Z,65.22
2017-10-18T01:31:19.483Z,76.32
2017-10-18T01:32:22.798Z,62.55
2017-10-18T01:33:25.272Z,61.88
2017-10-18T01:34:28.504Z,62.90
2017-10-18T01:35:31.733Z,60.50
2017-10-18T01:36:34.250Z,66.22
2017-10-18T01:37:36.743Z,57.80
2017-10-18T01:38:39.221Z,61.50
2017-10-18T01:39:42.459Z,61.05
2017-10-18T01:40:46.237Z,62.22
2017-10-18T01:41:48.744Z,58.00
2017-10-18T01:42:51.979Z,64.62
2017-10-18T01:43:55.215Z,60.92
2017-10-18T01:44:58.498Z,64.20
2017-10-18T01:46:00.963Z,67.05
2017-10-18T01:47:03.493Z,61.75
2017-10-18T01:48:05.946Z,60.67
2017-10-18T01:49:09.199Z,61.65
2017-10-18T01:50:11.663Z,63.40
2017-10-18T01:51:14.138Z,76.68
2017-10-18T01:52:17.408Z,66.05
2017-10-18T01:53:19.926Z,67.95
2017-10-18T01:54:23.779Z,68.15
2017-10-18T01:55:26.243Z,69.85
2017-10-18T01:56:28.733Z,71.65
2017-10-18T01:57:31.230Z,67.60
2017-10-18T01:58:34.484Z,70.25
2017-10-18T01:59:37.754Z,81.05
2017-10-18T02:00:40.210Z,83.12
2017-10-18T02:01:42.672Z,74.78
2017-10-18T02:02:45.930Z,74.65
2017-10-18T02:03:48.411Z,79.47
2017-10-18T02:04:50.873Z,84.47
2017-10-18T02:05:53.370Z,85.15
2017-10-18T02:06:55.834Z,79.75
2017-10-18T02:07:58.343Z,83.12
2017-10-18T02:09:02.518Z,70.25
2017-10-18T02:10:05.447Z,83.28
2017-10-18T02:11:07.914Z,77.82
2017-10-18T02:12:10.398Z,81.87
2017-10-18T02:13:12.899Z,78.55
2017-10-18T02:14:15.431Z,71.82
2017-10-18T02:15:18.671Z,79.30
2017-10-18T02:16:21.157Z,77.07
2017-10-18T02:17:23.627Z,80.32
2017-10-18T02:18:26.883Z,76.37
2017-10-18T02:19:29.394Z,74.60
2017-10-18T02:20:32.673Z,79.60
2017-10-18T02:21:35.132Z,76.50
2017-10-18T02:22:38.318Z,70.87
2017-10-18T02:23:41.557Z,66.40
2017-10-18T02:24:44.137Z,75.65
2017-10-18T02:25:46.622Z,69.00
2017-10-18T02:26:49.086Z,67.53
2017-10-18T02:27:51.655Z,68.53
2017-10-18T02:28:54.951Z,71.80
2017-10-18T02:29:57.432Z,67.20
2017-10-18T02:31:00.786Z,70.20
2017-10-18T02:32:03.258Z,70.25
2017-10-18T02:33:05.813Z,68.95
2017-10-18T02:34:09.057Z,74.53
2017-10-18T02:35:12.293Z,68.32
2017-10-18T02:36:15.556Z,68.65
2017-10-18T02:37:18.021Z,69.55
2017-10-18T02:38:20.490Z,66.68
2017-10-18T02:39:23.794Z,63.38
2017-10-18T02:40:26.265Z,74.25
2017-10-18T02:41:29.569Z,65.60
2017-10-18T02:42:32.036Z,65.87
2017-10-18T02:43:34.497Z,60.12
2017-10-18T02:44:36.962Z,65.93
2017-10-18T02:45:40.197Z,62.03
2017-10-18T02:46:42.686Z,67.20
2017-10-18T02:47:45.201Z,74.68
2017-10-18T02:48:47.673Z,76.15
2017-10-18T02:49:50.485Z,76.97
2017-10-18T02:50:52.938Z,63.05
2017-10-18T02:51:56.179Z,69.87
2017-10-18T02:52:58.779Z,67.28
2017-10-18T02:54:01.270Z,65.70
2017-10-18T02:55:03.730Z,69.43
2017-10-18T02:56:06.200Z,71.82
2017-10-18T02:57:09.434Z,67.82
2017-10-18T02:58:12.694Z,67.55
2017-10-18T02:59:15.166Z,68.20
2017-10-18T03:00:17.640Z,67.93
2017-10-18T03:01:20.099Z,69.18
2017-10-18T03:02:22.590Z,63.87
2017-10-18T03:03:25.097Z,65.85
2017-10-18T03:04:28.797Z,75.72
2017-10-18T03:05:31.268Z,69.87
2017-10-18T03:06:33.749Z,87.20
2017-10-18T03:07:36.219Z,80.22
2017-10-18T03:08:39.482Z,70.40
2017-10-18T03:09:41.959Z,76.97
2017-10-18T03:10:44.424Z,64.53
2017-10-18T03:11:47.657Z,65.97
2017-10-18T03:12:50.895Z,67.90
2017-10-18T03:13:54.156Z,62.17
2017-10-18T03:14:57.396Z,65.22
2017-10-18T03:16:00.642Z,63.55
2017-10-18T03:17:03.981Z,80.57
2017-10-18T03:18:07.216Z,70.93
2017-10-18T03:19:10.508Z,70.55
2017-10-18T03:20:12.958Z,69.05
2017-10-18T03:21:15.546Z,71.18
2017-10-18T03:22:18.048Z,61.15
2017-10-18T03:23:21.286Z,66.45
2017-10-18T03:24:24.508Z,76.05
2017-10-18T03:25:27.746Z,66.53
2017-10-18T03:26:30.204Z,75.18
2017-10-18T03:27:32.723Z,87.95
2017-10-18T03:28:35.962Z,75.00
2017-10-18T03:29:39.233Z,63.58
2017-10-18T03:30:41.712Z,62.47
2017-10-18T03:31:44.177Z,66.32
2017-10-18T03:32:46.661Z,66.50
2017-10-18T03:33:50.038Z,80.12
2017-10-18T03:34:52.509Z,77.97
2017-10-18T03:35:54.968Z,77.75
2017-10-18T03:36:58.216Z,66.53
2017-10-18T03:38:01.467Z,74.57
2017-10-18T03:39:03.978Z,64.22
2017-10-18T03:40:07.210Z,69.75
2017-10-18T03:41:09.769Z,69.72
2017-10-18T03:42:12.235Z,61.75
2017-10-18T03:43:14.706Z,65.10
2017-10-18T03:44:17.216Z,101.00
2017-10-18T03:45:19.726Z,62.50
2017-10-18T03:46:22.194Z,63.65
2017-10-18T03:47:24.662Z,83.15
2017-10-18T03:48:27.118Z,97.00
2017-10-18T03:49:30.381Z,95.35
2017-10-18T03:50:32.924Z,124.30
2017-10-18T03:51:35.431Z,107.72
2017-10-18T03:52:37.886Z,96.95
2017-10-18T03:53:40.362Z,153.18
2017-10-18T03:54:43.593Z,74.70
2017-10-18T03:55:46.105Z,81.50
2017-10-18T03:56:48.675Z,60.63
2017-10-18T03:57:51.221Z,59.70
2017-10-18T03:58:53.686Z,70.00
2017-10-18T03:59:56.254Z,80.32
2017-10-18T04:00:58.752Z,69.97
2017-10-18T04:02:01.208Z,70.47
2017-10-18T04:03:03.736Z,75.07
2017-10-18T04:04:06.246Z,64.12
2017-10-18T04:05:09.472Z,64.40
2017-10-18T04:06:12.706Z,74.90
2017-10-18T04:07:15.165Z,68.20
2017-10-18T04:08:17.629Z,87.40
2017-10-18T04:09:20.183Z,74.93
2017-10-18T04:10:22.743Z,93.62
2017-10-18T04:11:25.292Z,76.25
2017-10-18T04:12:27.751Z,89.03
2017-10-18T04:13:30.238Z,120.90
2017-10-18T04:14:32.766Z,121.28
2017-10-18T04:15:35.265Z,69.90
2017-10-18T04:16:37.732Z,84.80
2017-10-18T04:17:40.220Z,72.55
2017-10-18T04:18:42.669Z,79.50
2017-10-18T04:19:45.291Z,84.13
2017-10-18T04:20:47.777Z,87.35
2017-10-18T04:21:51.008Z,77.85
2017-10-18T04:22:53.524Z,83.10
2017-10-18T04:23:55.998Z,88.47
2017-10-18T04:24:58.497Z,64.28
2017-10-18T04:26:01.743Z,86.55
2017-10-18T04:27:05.029Z,80.15
2017-10-18T04:28:07.498Z,79.12
2017-10-18T04:29:10.774Z,72.68
2017-10-18T04:30:13.814Z,78.25
2017-10-18T04:31:16.277Z,66.03
2017-10-18T04:32:18.834Z,68.60
2017-10-18T04:33:22.087Z,72.20
2017-10-18T04:34:25.329Z,73.57
2017-10-18T04:35:28.552Z,76.28
2017-10-18T04:36:31.017Z,74.80
2017-10-18T04:37:33.516Z,62.17
2017-10-18T04:38:36.769Z,68.78
2017-10-18T04:39:39.350Z,62.60
2017-10-18T04:40:41.802Z,71.37
2017-10-18T04:41:45.071Z,62.62
2017-10-18T04:42:47.590Z,95.12
2017-10-18T04:43:50.120Z,72.70
2017-10-18T04:44:52.650Z,85.82
2017-10-18T04:45:55.114Z,69.93
2017-10-18T04:46:57.605Z,76.68
2017-10-18T04:48:00.105Z,70.65
2017-10-18T04:49:03.367Z,79.95
2017-10-18T04:50:05.845Z,77.97
2017-10-18T04:51:08.911Z,82.95
2017-10-18T04:52:12.150Z,103.87
2017-10-18T04:53:15.549Z,82.72
2017-10-18T04:54:18.146Z,99.97
2017-10-18T04:55:20.635Z,114.80
2017-10-18T04:56:23.200Z,128.18
2017-10-18T04:57:25.690Z,83.10
2017-10-18T04:58:28.214Z,84.28
2017-10-18T04:59:30.767Z,123.47
2017-10-18T05:00:33.253Z,95.78
2017-10-18T05:01:35.829Z,115.15
2017-10-18T05:02:38.298Z,114.22
2017-10-18T05:03:40.851Z,97.95
2017-10-18T05:04:43.301Z,79.75
2017-10-18T05:05:45.810Z,83.40
2017-10-18T05:06:49.164Z,81.90
2017-10-18T05:07:52.399Z,86.28
2017-10-18T05:08:55.639Z,79.35
2017-10-18T05:09:59.104Z,73.25
2017-10-18T05:11:01.583Z,82.07
2017-10-18T05:12:04.047Z,73.20
2017-10-18T05:13:07.279Z,73.32
2017-10-18T05:14:10.532Z,71.12
2017-10-18T05:15:13.039Z,62.17
2017-10-18T05:16:16.276Z,69.87
2017-10-18T05:17:18.743Z,64.43
2017-10-18T05:18:21.228Z,66.12
2017-10-18T05:19:24.450Z,69.78
2017-10-18T05:20:26.980Z,70.00
2017-10-18T05:21:29.452Z,64.68
2017-10-18T05:22:31.938Z,59.50
2017-10-18T05:23:34.401Z,59.20
2017-10-18T05:24:36.918Z,61.47
2017-10-18T05:25:39.488Z,87.55
2017-10-18T05:26:41.953Z,108.35
2017-10-18T05:27:45.205Z,70.53
2017-10-18T05:28:47.690Z,69.65
2017-10-18T05:29:50.161Z,73.25
2017-10-18T05:30:52.633Z,89.72
2017-10-18T05:31:55.140Z,74.97
2017-10-18T05:32:57.649Z,97.55
2017-10-18T05:34:00.584Z,71.15
2017-10-18T05:35:03.105Z,149.23
2017-10-18T05:36:05.589Z,86.70
2017-10-18T05:37:08.224Z,73.22
2017-10-18T05:38:10.733Z,116.47
2017-10-18T05:39:13.205Z,75.70
2017-10-18T05:40:15.686Z,94.22
2017-10-18T05:41:18.158Z,73.62
2017-10-18T05:42:20.678Z,116.05
2017-10-18T05:43:23.167Z,71.47
2017-10-18T05:44:25.629Z,66.30
2017-10-18T05:45:28.119Z,75.85
2017-10-18T05:46:30.579Z,64.18
2017-10-18T05:47:33.662Z,69.95
2017-10-18T05:48:36.120Z,98.18
2017-10-18T05:49:39.341Z,95.55
2017-10-18T05:50:41.926Z,92.57
2017-10-18T05:51:44.405Z,96.85
2017-10-18T05:52:47.722Z,116.60
2017-10-18T05:53:50.250Z,85.70
2017-10-18T05:54:52.741Z,82.03
2017-10-18T05:55:55.257Z,74.95
2017-10-18T05:56:57.718Z,68.32
2017-10-18T05:58:04.154Z,77.10
2017-10-18T05:59:06.606Z,73.18
2017-10-18T06:00:09.838Z,77.35
2017-10-18T06:01:13.099Z,78.93
2017-10-18T06:02:16.334Z,95.47
2017-10-18T06:03:19.707Z,103.15
2017-10-18T06:04:22.221Z,72.65
2017-10-18T06:05:24.728Z,118.32
2017-10-18T06:06:27.959Z,101.35
2017-10-18T06:07:31.239Z,93.57
2017-10-18T06:08:33.783Z,95.00
2017-10-18T06:09:36.238Z,99.00
2017-10-18T06:10:38.704Z,157.65
2017-10-18T06:11:41.217Z,149.40
2017-10-18T06:12:44.459Z,73.45
2017-10-18T06:13:47.721Z,79.18
2017-10-18T06:14:50.234Z,86.00
2017-10-18T06:15:53.479Z,97.28
2017-10-18T06:16:55.953Z,82.30
2017-10-18T06:17:58.419Z,72.25
2017-10-18T06:19:01.678Z,85.50
2017-10-18T06:20:04.190Z,72.47
2017-10-18T06:21:07.422Z,71.05
2017-10-18T06:22:10.652Z,58.87
2017-10-18T06:23:13.855Z,57.92
2017-10-18T06:24:16.326Z,64.43
2017-10-18T06:25:19.587Z,65.28
2017-10-18T06:26:22.822Z,68.75
2017-10-18T06:27:26.110Z,122.62
2017-10-18T06:28:28.610Z,65.87
2017-10-18T06:29:31.084Z,64.10
2017-10-18T06:30:33.567Z,73.68
2017-10-18T06:31:36.030Z,69.03
2017-10-18T06:32:38.560Z,80.72
2017-10-18T06:33:41.030Z,51.47
2017-10-18T06:34:43.571Z,66.28
2017-10-18T06:35:46.050Z,57.83
2017-10-18T06:36:48.514Z,62.05
2017-10-18T06:37:50.988Z,69.45
2017-10-18T06:38:54.310Z,62.25
2017-10-18T06:39:56.802Z,93.80
2017-10-18T06:40:59.682Z,83.03
2017-10-18T06:42:02.859Z,99.65
2017-10-18T06:43:06.088Z,63.47
2017-10-18T06:44:09.324Z,65.78
2017-10-18T06:45:11.814Z,97.65
2017-10-18T06:46:14.283Z,63.10
2017-10-18T06:47:17.524Z,72.93
2017-10-18T06:48:20.746Z,94.60
2017-10-18T06:49:23.218Z,102.28
2017-10-18T06:50:25.720Z,65.35
2017-10-18T06:51:28.946Z,145.73
2017-10-18T06:52:31.406Z,76.28
2017-10-18T06:53:33.928Z,210.52
2017-10-18T06:54:36.445Z,96.03
2017-10-18T06:55:39.723Z,77.72
2017-10-18T06:56:42.190Z,157.60
2017-10-18T06:57:44.665Z,112.25
2017-10-18T06:58:47.122Z,81.20
2017-10-18T06:59:49.609Z,266.45
2017-10-18T07:00:52.069Z,75.87
2017-10-18T07:01:54.581Z,69.03
2017-10-18T07:02:57.069Z,69.25
2017-10-18T07:04:00.312Z,120.80
2017-10-18T07:05:02.831Z,83.30
2017-10-18T07:06:06.057Z,89.32
2017-10-18T07:07:09.314Z,132.37
2017-10-18T07:08:12.570Z,86.28
2017-10-18T07:09:15.037Z,90.72
2017-10-18T07:10:17.510Z,86.93
2017-10-18T07:11:20.734Z,73.00
2017-10-18T07:12:24.116Z,67.35
2017-10-18T07:13:26.609Z,63.80
2017-10-18T07:14:29.070Z,70.72
2017-10-18T07:15:31.529Z,81.32
2017-10-18T07:16:34.016Z,219.27
2017-10-18T07:17:36.575Z,124.95
2017-10-18T07:18:39.034Z,108.65
2017-10-18T07:19:42.245Z,72.90
2017-10-18T07:20:44.714Z,77.20
2017-10-18T07:21:47.181Z,57.67
2017-10-18T07:22:49.685Z,100.07
2017-10-18T07:23:52.203Z,76.35
2017-10-18T07:24:54.669Z,101.38
2017-10-18T07:25:57.149Z,130.93
2017-10-18T07:26:59.664Z,85.68
2017-10-18T07:28:02.949Z,103.45
2017-10-18T07:29:05.413Z,77.95
2017-10-18T07:30:08.983Z,61.60
2017-10-18T07:31:12.226Z,64.18
2017-10-18T07:32:15.829Z,64.20
2017-10-18T07:33:18.318Z,79.70
2017-10-18T07:34:20.838Z,65.12
2017-10-18T07:35:23.291Z,73.93
2017-10-18T07:36:25.778Z,81.85
2017-10-18T07:37:28.230Z,62.00
2017-10-18T07:38:31.253Z,62.22
2017-10-18T07:39:33.737Z,71.35
2017-10-18T07:40:36.198Z,64.65
2017-10-18T07:41:38.708Z,68.55
2017-10-18T07:42:41.978Z,58.60
2017-10-18T07:43:44.446Z,51.70
2017-10-18T07:44:47.030Z,58.17
2017-10-18T07:45:49.488Z,66.60
2017-10-18T07:46:52.072Z,67.37
2017-10-18T07:47:54.606Z,89.13
2017-10-18T07:48:57.075Z,55.28
2017-10-18T07:50:00.353Z,58.63
2017-10-18T07:51:02.819Z,53.65
2017-10-18T07:52:05.310Z,57.55
2017-10-18T07:53:07.779Z,58.72
2017-10-18T07:54:10.236Z,81.12
2017-10-18T07:55:13.472Z,57.72
2017-10-18T07:56:15.957Z,81.43
2017-10-18T07:57:18.482Z,58.35
2017-10-18T07:58:20.952Z,58.60
2017-10-18T07:59:24.192Z,53.75
2017-10-18T08:00:27.416Z,53.13
2017-10-18T08:01:29.869Z,61.35
2017-10-18T08:02:33.200Z,53.33
2017-10-18T08:03:35.662Z,51.28
2017-10-18T08:04:38.136Z,52.78
2017-10-18T08:05:40.608Z,48.00
2017-10-18T08:06:43.090Z,55.42
2017-10-18T08:07:45.595Z,52.90
2017-10-18T08:08:48.058Z,75.75
2017-10-18T08:09:51.320Z,47.80
2017-10-18T08:10:54.556Z,51.83
2017-10-18T08:11:57.773Z,61.35
2017-10-18T08:13:01.033Z,48.20
2017-10-18T08:14:04.283Z,52.83
2017-10-18T08:15:07.512Z,51.15
2017-10-18T08:16:10.776Z,51.72
2017-10-18T08:17:13.245Z,52.75
2017-10-18T08:18:15.711Z,58.08
2017-10-18T08:19:18.168Z,58.67
2017-10-18T08:20:20.678Z,53.20
2017-10-18T08:21:23.150Z,55.38
2017-10-18T08:22:25.621Z,54.10
2017-10-18T08:23:28.091Z,53.95
2017-10-18T08:24:30.590Z,73.43
2017-10-18T08:25:33.065Z,54.42
2017-10-18T08:26:36.298Z,49.72
2017-10-18T08:27:38.770Z,52.08
2017-10-18T08:28:41.291Z,57.15
2017-10-18T08:29:43.822Z,51.88
2017-10-18T08:30:46.310Z,57.72
2017-10-18T08:31:48.768Z,55.00
2017-10-18T08:32:51.234Z,50.58
2017-10-18T08:33:53.745Z,51.55
2017-10-18T08:34:56.314Z,59.00
2017-10-18T08:35:58.776Z,60.65
2017-10-18T08:37:01.235Z,61.05
2017-10-18T08:38:03.707Z,56.78
2017-10-18T08:39:06.955Z,54.50
2017-10-18T08:40:09.477Z,61.20
2017-10-18T08:41:12.698Z,60.97
2017-10-18T08:42:15.266Z,58.35
2017-10-18T08:43:17.726Z,56.75
2017-10-18T08:44:20.222Z,60.45
2017-10-18T08:45:22.702Z,59.85
2017-10-18T08:46:25.166Z,67.45
2017-10-18T08:47:27.730Z,75.78
2017-10-18T08:48:30.185Z,67.50
2017-10-18T08:49:33.430Z,66.10
2017-10-18T08:50:36.701Z,66.87
2017-10-18T08:51:39.201Z,71.55
2017-10-18T08:52:42.446Z,62.15
2017-10-18T08:53:45.681Z,70.57
2017-10-18T08:54:48.945Z,76.05
2017-10-18T08:55:51.438Z,81.03
2017-10-18T08:56:54.754Z,75.07
2017-10-18T08:57:57.215Z,80.60
2017-10-18T08:59:00.446Z,81.53
2017-10-18T09:00:02.929Z,85.05
2017-10-18T09:01:05.431Z,82.28
2017-10-18T09:02:07.921Z,96.30
2017-10-18T09:03:11.158Z,84.50
2017-10-18T09:04:13.616Z,87.47
2017-10-18T09:05:16.077Z,85.20
2017-10-18T09:06:18.581Z,84.47
2017-10-18T09:07:21.127Z,88.20
2017-10-18T09:08:24.310Z,91.40
2017-10-18T09:09:26.793Z,79.97
2017-10-18T09:10:29.382Z,85.85
2017-10-18T09:11:31.913Z,85.12
2017-10-18T09:12:35.674Z,87.90
2017-10-18T09:13:38.125Z,82.90
2017-10-18T09:14:40.605Z,82.32
2017-10-18T09:15:43.866Z,81.20
2017-10-18T09:16:46.381Z,78.85
2017-10-18T09:17:48.876Z,84.25
2017-10-18T09:18:51.335Z,89.32
2017-10-18T09:19:53.800Z,89.95
2017-10-18T09:20:56.258Z,86.10
2017-10-18T09:21:59.562Z,91.78
2017-10-18T09:23:02.063Z,95.43
2017-10-18T09:24:04.560Z,89.45
2017-10-18T09:25:07.855Z,91.75
2017-10-18T09:26:10.359Z,89.78
2017-10-18T09:27:12.850Z,94.70
2017-10-18T09:28:16.080Z,91.43
2017-10-18T09:29:19.362Z,94.78
2017-10-18T09:30:21.850Z,90.90
2017-10-18T09:31:25.102Z,88.95
2017-10-18T09:32:28.370Z,78.37
2017-10-18T09:33:30.895Z,84.53
2017-10-18T09:34:33.371Z,76.40
2017-10-18T09:35:35.869Z,77.03
2017-10-18T09:36:38.371Z,75.10
2017-10-18T09:37:40.856Z,80.22
2017-10-18T09:38:44.946Z,83.50
2017-10-18T09:39:47.469Z,81.40
2017-10-18T09:40:49.970Z,75.70
2017-10-18T09:41:52.414Z,82.18
2017-10-18T09:42:55.670Z,81.90
2017-10-18T09:43:59.009Z,76.90
2017-10-18T09:45:02.240Z,80.22
2017-10-18T09:46:05.502Z,82.15
2017-10-18T09:47:07.970Z,80.05
2017-10-18T09:48:10.454Z,75.70
2017-10-18T09:49:12.919Z,75.40
2017-10-18T09:50:15.375Z,78.12
2017-10-18T09:51:18.678Z,72.90
2017-10-18T09:52:21.123Z,71.78
2017-10-18T09:53:23.644Z,73.10
2017-10-18T09:54:26.103Z,82.03
2017-10-18T09:55:29.393Z,70.10
2017-10-18T09:56:31.834Z,73.12
2017-10-18T09:57:34.389Z,75.97
2017-10-18T09:58:37.650Z,75.57
2017-10-18T09:59:40.114Z,76.75
2017-10-18T10:00:42.601Z,89.97
2017-10-18T10:01:45.089Z,77.80
2017-10-18T10:02:47.559Z,76.15
2017-10-18T10:03:50.059Z,73.12
2017-10-18T10:04:53.287Z,62.95
2017-10-18T10:05:55.893Z,73.50
2017-10-18T10:06:58.382Z,71.72
2017-10-18T10:08:00.862Z,71.40
2017-10-18T10:09:03.334Z,75.75
2017-10-18T10:10:05.803Z,79.07
2017-10-18T10:11:09.803Z,76.72
2017-10-18T10:12:12.271Z,84.22
2017-10-18T10:13:14.727Z,80.78
2017-10-18T10:14:17.962Z,76.85
2017-10-18T10:15:20.410Z,81.15
2017-10-18T10:16:24.638Z,75.28
2017-10-18T10:17:27.107Z,74.07
2017-10-18T10:18:29.586Z,76.15
2017-10-18T10:19:32.899Z,83.00
2017-10-18T10:20:35.384Z,77.75
2017-10-18T10:21:38.636Z,79.75
2017-10-18T10:22:41.868Z,77.43
2017-10-18T10:23:45.111Z,83.20
2017-10-18T10:24:48.377Z,71.72
2017-10-18T10:25:50.951Z,83.80
2017-10-18T10:26:53.449Z,80.03
2017-10-18T10:27:55.928Z,72.47
2017-10-18T10:28:59.296Z,66.90
2017-10-18T10:30:01.826Z,66.37
2017-10-18T10:31:04.297Z,65.10
2017-10-18T10:32:06.782Z,72.55
2017-10-18T10:33:09.247Z,70.87
2017-10-18T10:34:11.788Z,67.53
2017-10-18T10:35:14.290Z,71.57
2017-10-18T10:36:16.742Z,72.10
2017-10-18T10:37:19.303Z,69.78
2017-10-18T10:38:21.782Z,69.12
2017-10-18T10:39:24.309Z,71.55
2017-10-18T10:40:26.793Z,69.40
2017-10-18T10:41:29.277Z,62.83
2017-10-18T10:42:32.513Z,69.62
2017-10-18T10:43:35.753Z,71.20
2017-10-18T10:44:38.253Z,66.07
2017-10-18T10:45:40.741Z,67.25
2017-10-18T10:46:43.212Z,71.70
2017-10-18T10:47:45.679Z,60.92
2017-10-18T10:48:48.922Z,59.90
2017-10-18T10:49:52.222Z,62.92
2017-10-18T10:50:54.682Z,57.53
2017-10-18T10:51:58.045Z,58.35
2017-10-18T10:53:00.505Z,63.87
2017-10-18T10:54:02.970Z,56.70
2017-10-18T10:55:06.214Z,62.58
2017-10-18T10:56:09.472Z,56.22
2017-10-18T10:57:12.717Z,59.28
2017-10-18T10:58:15.182Z,60.12
2017-10-18T10:59:17.653Z,55.22
2017-10-18T11:00:20.891Z,50.47
2017-10-18T11:01:24.149Z,54.40
2017-10-18T11:02:26.610Z,53.13
2017-10-18T11:03:29.073Z,53.00
2017-10-18T11:04:32.354Z,51.10
2017-10-18T11:05:34.816Z,47.05
2017-10-18T11:06:37.337Z,43.28
2017-10-18T11:07:39.793Z,37.50
2017-10-18T11:08:43.039Z,44.45
2017-10-18T11:09:46.314Z,41.28
2017-10-18T11:10:48.781Z,41.75
2017-10-18T11:11:51.250Z,40.92
2017-10-18T11:12:53.758Z,40.22
2017-10-18T11:13:56.993Z,33.15
2017-10-18T11:15:00.252Z,35.08
2017-10-18T11:16:03.503Z,33.15
2017-10-18T11:17:06.044Z,35.47
2017-10-18T11:18:08.522Z,28.55
2017-10-18T11:19:11.178Z,28.17
2017-10-18T11:20:13.690Z,28.98
2017-10-18T11:21:16.947Z,36.25
2017-10-18T11:22:20.179Z,33.55
2017-10-18T11:23:23.244Z,43.20
2017-10-18T11:24:25.726Z,48.15
2017-10-18T11:25:28.981Z,42.28
2017-10-18T11:26:32.217Z,41.60
2017-10-18T11:27:34.701Z,49.15
2017-10-18T11:28:37.174Z,46.67
2017-10-18T11:29:40.432Z,52.47
2017-10-18T11:30:43.696Z,43.30
2017-10-18T11:31:46.156Z,42.45
2017-10-18T11:32:48.732Z,45.95
2017-10-18T11:33:51.214Z,50.75
2017-10-18T11:34:53.698Z,40.38
2017-10-18T11:35:56.162Z,40.40
2017-10-18T11:36:58.632Z,48.30
2017-10-18T11:38:01.118Z,45.22
2017-10-18T11:39:04.354Z,52.65
2017-10-18T11:40:06.919Z,48.97
2017-10-18T11:41:09.414Z,49.25
2017-10-18T11:42:11.900Z,45.78
2017-10-18T11:43:14.404Z,49.75
2017-10-18T11:44:16.881Z,49.97
2017-10-18T11:45:19.376Z,44.35
2017-10-18T11:46:21.870Z,52.53
2017-10-18T11:47:24.399Z,45.75
2017-10-18T11:48:26.886Z,48.95
2017-10-18T11:49:30.126Z,43.47
2017-10-18T11:50:32.591Z,44.63
2017-10-18T11:51:35.110Z,45.97
2017-10-18T11:52:37.660Z,52.10
2017-10-18T11:53:40.129Z,53.30
2017-10-18T11:54:42.621Z,44.83
2017-10-18T11:55:45.138Z,49.17
2017-10-18T11:56:47.635Z,49.50
2017-10-18T11:57:50.850Z,42.75
2017-10-18T11:58:53.310Z,49.22
2017-10-18T11:59:55.803Z,45.10
2017-10-18T12:00:58.276Z,42.30
2017-10-18T12:02:00.734Z,47.65
2017-10-18T12:03:03.226Z,49.50
2017-10-18T12:04:05.714Z,40.55
2017-10-18T12:05:08.950Z,45.90
2017-10-18T12:06:12.225Z,42.28
2017-10-18T12:07:14.759Z,45.88
2017-10-18T12:08:17.279Z,47.75
2017-10-18T12:09:19.778Z,42.70
2017-10-18T12:10:23.063Z,41.78
2017-10-18T12:11:25.529Z,40.28
2017-10-18T12:12:27.997Z,36.20
2017-10-18T12:13:30.650Z,42.70
2017-10-18T12:14:33.130Z,39.25
2017-10-18T12:15:36.925Z,35.40
2017-10-18T12:16:39.391Z,36.20
2017-10-18T12:17:41.997Z,32.97
2017-10-18T12:18:44.462Z,27.70
2017-10-18T12:19:47.734Z,29.65
2017-10-18T12:20:50.203Z,29.10
2017-10-18T12:21:53.446Z,31.12
2017-10-18T12:22:55.929Z,28.27
2017-10-18T12:23:58.455Z,30.80
2017-10-18T12:25:00.922Z,31.23
2017-10-18T12:26:03.424Z,24.60
2017-10-18T12:27:05.910Z,34.75
2017-10-18T12:28:08.378Z,25.92
2017-10-18T12:29:10.851Z,28.83
2017-10-18T12:30:14.082Z,26.95
2017-10-18T12:31:17.349Z,25.42
2017-10-18T12:32:19.832Z,32.05
2017-10-18T12:33:22.991Z,30.88
2017-10-18T12:34:26.256Z,24.58
2017-10-18T12:35:28.738Z,25.50
2017-10-18T12:36:31.267Z,24.90
2017-10-18T12:37:33.738Z,34.00
2017-10-18T12:38:36.259Z,23.95
2017-10-18T12:39:38.830Z,28.50
2017-10-18T12:40:41.294Z,27.55
2017-10-18T12:41:44.544Z,27.35
2017-10-18T12:42:47.023Z,30.10
2017-10-18T12:43:49.552Z,28.38
2017-10-18T12:44:52.007Z,25.67
2017-10-18T12:45:55.288Z,23.87
2017-10-18T12:46:57.751Z,25.73
2017-10-18T12:48:00.318Z,29.83
2017-10-18T12:49:03.499Z,32.17
2017-10-18T12:50:06.066Z,22.73
2017-10-18T12:51:09.345Z,28.12
2017-10-18T12:52:11.807Z,30.25
2017-10-18T12:53:14.266Z,22.25
2017-10-18T12:54:17.502Z,25.55
2017-10-18T12:55:20.775Z,31.60
2017-10-18T12:56:23.262Z,26.02
2017-10-18T12:57:26.496Z,28.52
2017-10-18T12:58:28.955Z,34.88
2017-10-18T12:59:31.440Z,32.13
2017-10-18T13:00:33.996Z,34.10
2017-10-18T13:01:37.245Z,34.20
2017-10-18T13:02:39.728Z,36.25
2017-10-18T13:03:42.197Z,33.88
2017-10-18T13:04:45.438Z,36.00
2017-10-18T13:05:48.695Z,35.75
2017-10-18T13:06:51.169Z,31.23
2017-10-18T13:07:53.737Z,30.20
2017-10-18T13:08:56.201Z,37.28
2017-10-18T13:09:58.709Z,34.08
2017-10-18T13:11:01.364Z,38.58
2017-10-18T13:12:03.834Z,33.53
2017-10-18T13:13:06.309Z,36.80
2017-10-18T13:14:08.774Z,32.22
2017-10-18T13:15:12.041Z,37.60
2017-10-18T13:16:14.538Z,34.70
2017-10-18T13:17:17.775Z,30.23
2017-10-18T13:18:20.997Z,38.58
2017-10-18T13:19:23.511Z,33.88
2017-10-18T13:20:26.006Z,34.47
2017-10-18T13:21:28.498Z,36.10
2017-10-18T13:22:31.744Z,38.38
2017-10-18T13:23:34.966Z,36.45
2017-10-18T13:24:37.419Z,38.17
2017-10-18T13:25:39.885Z,30.92
2017-10-18T13:26:42.384Z,35.38
2017-10-18T13:27:44.887Z,37.47